Time;durP1;ratioP1;P1;durP2;ratioP2;P2;SDS_P1;SDS_P2;PMS_P1;PMS_P2;Temp;Humidity;BMP_temperature;BMP_pressure;BME280_temperature;BME280_humidity;BME280_pressure;Samples;Min_cycle;Max_cycle;Signal;HPM_P1;HPM_P2
2022/03/26 00:01:52;;;;;;;33.58;19.85;;;;;;;;;;4936016;29;20490;-61
2022/03/26 00:04:18;;;;;;;32.85;19.45;;;;;;;;;;4936429;29;20169;-60
2022/03/26 00:06:44;;;;;;;34.03;20.55;;;;;;;;;;4936270;29;20191;-60
2022/03/26 00:09:10;;;;;;;32.97;20.13;;;;;;;;;;4936101;29;20641;-61
2022/03/26 00:11:36;;;;;;;33.92;19.30;;;;;;;;;;4935970;29;20175;-61
2022/03/26 00:14:02;;;;;;;31.80;19.88;;;;;;;;;;4935957;29;20173;-61
2022/03/26 00:16:28;;;;;;;32.95;19.58;;;;;;;;;;4935957;29;20219;-61
2022/03/26 00:18:54;;;;;;;33.28;19.70;;;;;;;;;;4935786;29;20555;-61
2022/03/26 00:21:21;;;;;;;31.48;18.88;;;;;;;;;;4936052;29;20180;-62
2022/03/26 00:23:47;;;;;;;31.90;19.13;;;;;;;;;;4935961;29;20180;-62
2022/03/26 00:26:15;;;;;;;32.92;19.60;;;;;;;;;;4937818;29;20173;-62
2022/03/26 00:28:41;;;;;;;29.83;19.00;;;;;;;;;;4939742;29;20173;-62
2022/03/26 00:31:08;;;;;;;32.08;19.27;;;;;;;;;;4939495;29;20220;-62
2022/03/26 00:33:34;;;;;;;31.48;18.95;;;;;;;;;;4939667;29;20177;-62
2022/03/26 00:36:00;;;;;;;33.90;19.20;;;;;;;;;;4939279;29;20184;-62
2022/03/26 00:38:26;;;;;;;32.20;20.25;;;;;;;;;;4939544;29;20506;-61
2022/03/26 00:40:52;;;;;;;33.47;20.45;;;;;;;;;;4939245;29;20173;-61
2022/03/26 00:43:18;;;;;;;33.78;19.52;;;;;;;;;;4939032;29;20606;-61
2022/03/26 00:45:44;;;;;;;37.40;22.00;;;;;;;;;;4939183;29;20176;-61
2022/03/26 00:48:10;;;;;;;32.85;21.83;;;;;;;;;;4939193;29;20161;-61
2022/03/26 00:50:36;;;;;;;44.50;23.50;;;;;;;;;;4939125;29;20173;-63
2022/03/26 00:53:02;;;;;;;40.03;22.20;;;;;;;;;;4938952;29;20169;-62
2022/03/26 00:55:28;;;;;;;41.63;23.00;;;;;;;;;;4939133;29;20483;-61
2022/03/26 00:57:54;;;;;;;41.90;24.25;;;;;;;;;;4938909;29;20208;-61
2022/03/26 01:00:20;;;;;;;45.00;24.75;;;;;;;;;;4939210;29;20169;-61
2022/03/26 01:02:46;;;;;;;44.70;24.83;;;;;;;;;;4939091;29;20179;-62
2022/03/26 01:05:13;;;;;;;44.95;25.25;;;;;;;;;;4939143;29;20184;-61
2022/03/26 01:07:39;;;;;;;45.75;25.23;;;;;;;;;;4938930;29;20267;-61
2022/03/26 01:10:07;;;;;;;46.63;24.60;;;;;;;;;;4938886;29;20204;-59
2022/03/26 01:12:33;;;;;;;50.30;26.20;;;;;;;;;;4938969;29;20181;-58
2022/03/26 01:14:58;;;;;;;47.92;27.48;;;;;;;;;;4938772;29;20179;-60
2022/03/26 01:17:24;;;;;;;45.55;25.60;;;;;;;;;;4938701;29;20196;-59
2022/03/26 01:19:51;;;;;;;55.85;27.85;;;;;;;;;;4939171;29;20212;-60
2022/03/26 01:22:17;;;;;;;48.47;26.98;;;;;;;;;;4939928;29;20189;-61
2022/03/26 01:24:43;;;;;;;48.40;27.23;;;;;;;;;;4939558;29;20161;-59
2022/03/26 01:27:09;;;;;;;54.88;28.38;;;;;;;;;;4939513;29;20173;-60
2022/03/26 01:29:38;;;;;;;50.53;28.08;;;;;;;;;;4944786;29;20571;-60
2022/03/26 01:32:05;;;;;;;50.28;27.45;;;;;;;;;;4943693;29;20177;-59
2022/03/26 01:34:31;;;;;;;50.33;27.63;;;;;;;;;;4938448;29;20176;-60
2022/03/26 01:36:57;;;;;;;53.75;29.38;;;;;;;;;;4937536;29;20192;-59
2022/03/26 01:39:23;;;;;;;50.95;27.70;;;;;;;;;;4938446;29;20278;-60
2022/03/26 01:41:49;;;;;;;52.78;29.35;;;;;;;;;;4938286;29;20493;-60
2022/03/26 01:44:15;;;;;;;53.30;27.80;;;;;;;;;;4938271;29;20177;-59
2022/03/26 01:46:45;;;;;;;53.72;27.83;;;;;;;;;;4938194;29;20200;-59
2022/03/26 01:49:11;;;;;;;52.20;27.52;;;;;;;;;;4938215;29;20180;-59
2022/03/26 01:51:37;;;;;;;52.95;28.42;;;;;;;;;;4938184;29;20297;-59
2022/03/26 01:54:03;;;;;;;55.97;28.67;;;;;;;;;;4937870;29;20180;-59
2022/03/26 01:56:29;;;;;;;47.08;27.10;;;;;;;;;;4938148;29;20216;-59
2022/03/26 01:58:55;;;;;;;51.08;28.33;;;;;;;;;;4937946;29;20665;-59
2022/03/26 02:01:21;;;;;;;50.92;27.10;;;;;;;;;;4937758;29;20169;-60
2022/03/26 02:03:47;;;;;;;48.70;27.20;;;;;;;;;;4937947;29;20177;-60
2022/03/26 02:06:13;;;;;;;46.17;26.13;;;;;;;;;;4937790;29;20177;-59
2022/03/26 02:08:39;;;;;;;46.38;26.42;;;;;;;;;;4937669;29;20165;-59
2022/03/26 02:11:05;;;;;;;47.67;27.75;;;;;;;;;;4937660;29;20200;-59
2022/03/26 02:13:51;;;;;;;50.55;27.40;;;;;;;;;;4937852;29;20548;-59
2022/03/26 02:16:17;;;;;;;52.58;26.45;;;;;;;;;;4937311;29;20661;-61
2022/03/26 02:18:43;;;;;;;47.63;25.50;;;;;;;;;;4937749;29;20219;-58
2022/03/26 02:21:10;;;;;;;46.40;27.30;;;;;;;;;;4937464;29;20172;-58
2022/03/26 02:23:36;;;;;;;49.80;26.83;;;;;;;;;;4937514;29;20192;-60
2022/03/26 02:26:01;;;;;;;44.78;24.90;;;;;;;;;;4937393;29;20200;-61
2022/03/26 02:28:27;;;;;;;45.95;26.13;;;;;;;;;;4937250;29;20562;-61
2022/03/26 02:30:53;;;;;;;49.38;26.77;;;;;;;;;;4937305;29;20300;-59
2022/03/26 02:33:19;;;;;;;42.85;25.23;;;;;;;;;;4937186;29;20192;-59
2022/03/26 02:35:45;;;;;;;44.63;25.83;;;;;;;;;;4937199;29;20180;-59
2022/03/26 02:38:11;;;;;;;46.60;26.23;;;;;;;;;;4937170;29;20173;-59
2022/03/26 02:40:37;;;;;;;51.08;26.17;;;;;;;;;;4937003;29;20168;-60
2022/03/26 02:43:05;;;;;;;47.72;26.27;;;;;;;;;;4937126;29;20267;-61
2022/03/26 02:45:32;;;;;;;49.50;26.58;;;;;;;;;;4936935;29;20194;-60
2022/03/26 02:47:58;;;;;;;50.60;25.70;;;;;;;;;;4937187;29;20201;-60
2022/03/26 02:50:24;;;;;;;49.53;26.63;;;;;;;;;;4936891;29;20267;-60
2022/03/26 02:52:50;;;;;;;49.95;27.00;;;;;;;;;;4936912;29;20202;-60
2022/03/26 02:55:17;;;;;;;45.55;25.58;;;;;;;;;;4937060;29;20220;-60
2022/03/26 02:57:43;;;;;;;47.70;25.85;;;;;;;;;;4936789;29;20196;-60
2022/03/26 03:00:09;;;;;;;46.35;25.58;;;;;;;;;;4936767;29;20180;-59
2022/03/26 03:02:35;;;;;;;48.58;26.55;;;;;;;;;;4936773;29;20677;-60
2022/03/26 03:05:02;;;;;;;43.60;24.63;;;;;;;;;;4936644;29;20165;-59
2022/03/26 03:07:28;;;;;;;46.20;26.10;;;;;;;;;;4936848;29;20606;-60
2022/03/26 03:09:54;;;;;;;45.35;23.65;;;;;;;;;;4936906;29;20207;-59
2022/03/26 03:12:20;;;;;;;48.22;25.52;;;;;;;;;;4936850;29;20200;-60
2022/03/26 03:14:46;;;;;;;46.05;24.92;;;;;;;;;;4936895;29;20240;-59
2022/03/26 03:17:12;;;;;;;47.42;24.90;;;;;;;;;;4936487;29;20188;-59
2022/03/26 03:19:39;;;;;;;46.50;25.70;;;;;;;;;;4936595;29;20227;-59
2022/03/26 03:22:05;;;;;;;43.60;24.25;;;;;;;;;;4936415;29;20169;-59
2022/03/26 03:24:31;;;;;;;46.45;23.80;;;;;;;;;;4936310;29;20648;-60
2022/03/26 03:26:57;;;;;;;42.40;24.20;;;;;;;;;;4936517;29;20561;-60
2022/03/26 03:29:23;;;;;;;43.72;24.70;;;;;;;;;;4936341;29;20173;-59
2022/03/26 03:31:49;;;;;;;44.65;25.88;;;;;;;;;;4936375;29;20205;-60
2022/03/26 03:34:15;;;;;;;41.83;23.10;;;;;;;;;;4936552;29;20177;-60
2022/03/26 03:36:41;;;;;;;41.22;23.70;;;;;;;;;;4936456;29;20196;-60
2022/03/26 03:39:07;;;;;;;41.72;23.63;;;;;;;;;;4936160;29;20195;-60
2022/03/26 03:41:34;;;;;;;37.17;21.85;;;;;;;;;;4936237;29;20248;-60
2022/03/26 03:44:02;;;;;;;42.15;23.40;;;;;;;;;;4936370;29;20219;-60
2022/03/26 03:46:29;;;;;;;39.95;22.42;;;;;;;;;;4936123;29;20563;-60
2022/03/26 03:48:55;;;;;;;39.30;22.15;;;;;;;;;;4936200;29;20315;-60
2022/03/26 03:51:21;;;;;;;39.55;22.95;;;;;;;;;;4936123;29;20255;-60
2022/03/26 03:53:46;;;;;;;43.33;22.60;;;;;;;;;;4936067;29;20176;-59
2022/03/26 03:56:12;;;;;;;38.85;22.13;;;;;;;;;;4935912;29;20196;-60
2022/03/26 03:58:38;;;;;;;38.95;22.20;;;;;;;;;;4936583;29;20172;-60
2022/03/26 04:01:04;;;;;;;42.83;21.67;;;;;;;;;;4938102;29;20534;-60
2022/03/26 04:03:30;;;;;;;43.25;22.38;;;;;;;;;;4940073;29;20173;-59
2022/03/26 04:05:58;;;;;;;39.92;22.88;;;;;;;;;;4940119;29;20501;-59
2022/03/26 04:08:24;;;;;;;40.42;22.27;;;;;;;;;;4939896;29;20501;-58
2022/03/26 04:10:50;;;;;;;37.15;21.23;;;;;;;;;;4939717;29;20173;-61
2022/03/26 04:13:16;;;;;;;39.55;20.50;;;;;;;;;;4939986;29;20176;-61
2022/03/26 04:15:42;;;;;;;42.50;22.52;;;;;;;;;;4939715;29;20188;-60
2022/03/26 04:18:07;;;;;;;38.40;21.17;;;;;;;;;;4939691;29;20228;-60
2022/03/26 04:20:35;;;;;;;37.45;20.90;;;;;;;;;;4939708;29;20487;-60
2022/03/26 04:23:00;;;;;;;39.30;21.45;;;;;;;;;;4939879;29;20259;-60
2022/03/26 04:25:26;;;;;;;37.90;20.15;;;;;;;;;;4939609;29;20180;-60
2022/03/26 04:27:52;;;;;;;37.72;19.85;;;;;;;;;;4939733;29;20176;-60
2022/03/26 04:30:19;;;;;;;36.80;20.05;;;;;;;;;;4939858;29;20227;-60
2022/03/26 04:32:44;;;;;;;34.65;19.25;;;;;;;;;;4939590;29;20165;-60
2022/03/26 04:35:11;;;;;;;33.15;18.60;;;;;;;;;;4939643;29;20547;-59
2022/03/26 04:37:37;;;;;;;30.02;18.67;;;;;;;;;;4939309;29;20204;-58
2022/03/26 04:40:04;;;;;;;33.88;19.73;;;;;;;;;;4939347;29;20613;-59
2022/03/26 04:42:30;;;;;;;33.35;19.27;;;;;;;;;;4939339;29;20169;-61
2022/03/26 04:44:56;;;;;;;33.13;18.60;;;;;;;;;;4939218;29;20169;-59
2022/03/26 04:47:22;;;;;;;33.03;19.67;;;;;;;;;;4939434;29;20256;-59
2022/03/26 04:49:48;;;;;;;35.30;19.77;;;;;;;;;;4939271;29;20255;-59
2022/03/26 04:52:14;;;;;;;33.90;19.23;;;;;;;;;;4939028;29;20502;-59
2022/03/26 04:54:42;;;;;;;34.70;19.67;;;;;;;;;;4939162;29;20180;-60
2022/03/26 04:57:07;;;;;;;30.60;18.50;;;;;;;;;;4939142;29;20256;-60
2022/03/26 04:59:33;;;;;;;31.63;18.17;;;;;;;;;;4939285;29;20180;-60
2022/03/26 05:01:59;;;;;;;32.33;17.00;;;;;;;;;;4938845;29;20165;-60
2022/03/26 05:04:25;;;;;;;30.45;17.02;;;;;;;;;;4938915;29;20171;-60
2022/03/26 05:06:51;;;;;;;28.38;16.42;;;;;;;;;;4939068;29;20579;-60
2022/03/26 05:09:17;;;;;;;29.42;17.67;;;;;;;;;;4938893;29;20586;-60
2022/03/26 05:11:43;;;;;;;34.42;18.52;;;;;;;;;;4937827;29;20173;-60
2022/03/26 05:14:09;;;;;;;31.45;17.35;;;;;;;;;;4938693;29;20172;-60
2022/03/26 05:16:35;;;;;;;30.35;18.27;;;;;;;;;;4938776;29;20192;-60
2022/03/26 05:19:01;;;;;;;32.00;17.45;;;;;;;;;;4938918;29;20669;-59
2022/03/26 05:21:27;;;;;;;31.83;18.45;;;;;;;;;;4938670;29;20176;-58
2022/03/26 05:23:53;;;;;;;32.00;17.42;;;;;;;;;;4938948;29;20165;-59
2022/03/26 05:26:21;;;;;;;28.77;16.40;;;;;;;;;;4938474;29;20269;-59
2022/03/26 05:28:47;;;;;;;34.22;19.17;;;;;;;;;;4939087;29;20259;-59
2022/03/26 05:31:13;;;;;;;29.05;17.15;;;;;;;;;;4938579;29;20220;-58
2022/03/26 05:33:39;;;;;;;29.13;16.20;;;;;;;;;;4938616;29;20180;-59
2022/03/26 05:36:05;;;;;;;30.20;16.38;;;;;;;;;;4938599;29;20181;-59
2022/03/26 05:38:32;;;;;;;28.75;16.80;;;;;;;;;;4938797;29;20220;-59
2022/03/26 05:40:58;;;;;;;29.85;15.50;;;;;;;;;;4939036;29;20673;-59
2022/03/26 05:43:24;;;;;;;27.20;16.40;;;;;;;;;;4939032;29;20197;-59
2022/03/26 05:45:51;;;;;;;25.13;15.18;;;;;;;;;;4938851;29;20200;-60
2022/03/26 05:48:18;;;;;;;25.80;15.35;;;;;;;;;;4938477;29;20248;-59
2022/03/26 05:50:44;;;;;;;26.63;15.57;;;;;;;;;;4938385;29;20176;-59
2022/03/26 05:53:10;;;;;;;25.10;14.25;;;;;;;;;;4938126;29;20276;-59
2022/03/26 05:55:36;;;;;;;24.08;14.00;;;;;;;;;;4937950;29;20512;-59
2022/03/26 05:58:03;;;;;;;25.90;14.88;;;;;;;;;;4938669;29;20563;-60
2022/03/26 06:00:29;;;;;;;27.50;14.85;;;;;;;;;;4938135;29;20176;-60
2022/03/26 06:02:55;;;;;;;24.52;14.75;;;;;;;;;;4938775;29;20530;-59
2022/03/26 06:05:21;;;;;;;28.33;15.63;;;;;;;;;;4937885;29;20184;-59
2022/03/26 06:07:47;;;;;;;28.63;15.88;;;;;;;;;;4938135;29;20343;-59
2022/03/26 06:10:13;;;;;;;26.80;15.43;;;;;;;;;;4938144;29;20173;-59
2022/03/26 06:12:39;;;;;;;28.27;15.70;;;;;;;;;;4937942;29;20173;-59
2022/03/26 06:15:06;;;;;;;27.92;15.77;;;;;;;;;;4937766;29;20256;-59
2022/03/26 06:17:32;;;;;;;29.15;15.45;;;;;;;;;;4938379;29;20558;-60
2022/03/26 06:19:58;;;;;;;29.98;15.60;;;;;;;;;;4938213;29;20232;-60
2022/03/26 06:22:24;;;;;;;29.20;15.48;;;;;;;;;;4937583;29;20196;-61
2022/03/26 06:24:50;;;;;;;24.67;15.15;;;;;;;;;;4937348;29;20497;-60
2022/03/26 06:27:16;;;;;;;32.67;15.57;;;;;;;;;;4937496;29;20183;-60
2022/03/26 06:29:42;;;;;;;30.52;16.80;;;;;;;;;;4937312;29;20176;-59
2022/03/26 06:32:08;;;;;;;32.75;16.48;;;;;;;;;;4937758;29;20172;-59
2022/03/26 06:34:34;;;;;;;28.88;16.27;;;;;;;;;;4937460;29;20173;-60
2022/03/26 06:37:00;;;;;;;33.15;17.48;;;;;;;;;;4937115;29;20314;-59
2022/03/26 06:39:26;;;;;;;31.80;17.58;;;;;;;;;;4937158;29;20532;-59
2022/03/26 06:41:53;;;;;;;32.50;17.08;;;;;;;;;;4937521;29;20197;-60
2022/03/26 06:44:19;;;;;;;31.23;17.65;;;;;;;;;;4937342;29;20169;-62
2022/03/26 06:46:44;;;;;;;31.05;17.38;;;;;;;;;;4937161;29;20228;-61
2022/03/26 06:49:10;;;;;;;36.10;18.80;;;;;;;;;;4937100;29;20564;-61
2022/03/26 06:51:37;;;;;;;32.83;17.33;;;;;;;;;;4937239;29;20199;-62
2022/03/26 06:54:03;;;;;;;32.70;17.10;;;;;;;;;;4936882;29;20173;-62
2022/03/26 06:56:29;;;;;;;33.78;18.10;;;;;;;;;;4936800;29;20189;-62
2022/03/26 06:58:55;;;;;;;37.15;19.23;;;;;;;;;;4937149;29;20248;-62
2022/03/26 07:01:21;;;;;;;35.47;19.08;;;;;;;;;;4936928;29;20188;-62
2022/03/26 07:03:48;;;;;;;37.28;18.40;;;;;;;;;;4936853;29;20505;-62
2022/03/26 07:06:15;;;;;;;34.60;18.90;;;;;;;;;;4936818;29;20198;-62
2022/03/26 07:08:41;;;;;;;35.20;18.80;;;;;;;;;;4936980;29;20259;-62
2022/03/26 07:11:07;;;;;;;37.60;19.70;;;;;;;;;;4937271;29;20181;-61
2022/03/26 07:13:33;;;;;;;36.00;20.08;;;;;;;;;;4936978;29;20187;-61
2022/03/26 07:15:59;;;;;;;34.05;18.73;;;;;;;;;;4936652;29;20597;-62
2022/03/26 07:18:25;;;;;;;36.75;18.88;;;;;;;;;;4936557;29;20199;-60
2022/03/26 07:20:55;;;;;;;40.97;18.55;;;;;;;;;;4936685;29;20197;-61
2022/03/26 07:23:21;;;;;;;33.40;17.85;;;;;;;;;;4936964;29;20552;-61
2022/03/26 07:25:47;;;;;;;40.50;18.92;;;;;;;;;;4937212;29;20161;-61
2022/03/26 07:28:12;;;;;;;33.15;18.15;;;;;;;;;;4936943;29;20705;-61
2022/03/26 07:30:38;;;;;;;39.78;19.42;;;;;;;;;;4936649;29;20177;-60
2022/03/26 07:33:04;;;;;;;41.03;19.08;;;;;;;;;;4936846;29;20191;-62
2022/03/26 07:35:31;;;;;;;38.13;18.70;;;;;;;;;;4935960;29;20192;-61
2022/03/26 07:37:57;;;;;;;43.50;19.50;;;;;;;;;;4936307;29;20547;-63
2022/03/26 07:40:23;;;;;;;45.42;20.38;;;;;;;;;;4936831;29;20174;-62
2022/03/26 07:42:49;;;;;;;39.58;19.38;;;;;;;;;;4936187;29;20209;-62
2022/03/26 07:45:15;;;;;;;37.65;19.17;;;;;;;;;;4936489;29;20173;-61
2022/03/26 07:47:40;;;;;;;34.35;18.33;;;;;;;;;;4936114;29;20218;-63
2022/03/26 07:50:07;;;;;;;38.72;17.85;;;;;;;;;;4936138;29;20212;-62
2022/03/26 07:52:33;;;;;;;39.10;18.65;;;;;;;;;;4936398;29;20180;-62
2022/03/26 07:54:59;;;;;;;39.90;18.77;;;;;;;;;;4936144;29;20169;-62
2022/03/26 07:57:26;;;;;;;34.53;18.70;;;;;;;;;;4936013;29;20196;-62
2022/03/26 07:59:52;;;;;;;38.42;18.02;;;;;;;;;;4936380;29;20180;-62
2022/03/26 08:02:18;;;;;;;36.72;18.45;;;;;;;;;;4935998;29;20703;-63
2022/03/26 08:04:45;;;;;;;33.70;17.23;;;;;;;;;;4936040;29;20168;-62
2022/03/26 08:07:11;;;;;;;33.15;16.95;;;;;;;;;;4936229;29;20332;-62
2022/03/26 08:09:37;;;;;;;35.28;17.73;;;;;;;;;;4936227;29;20255;-62
2022/03/26 08:12:03;;;;;;;35.88;16.58;;;;;;;;;;4935973;29;20597;-62
2022/03/26 08:14:30;;;;;;;29.30;16.80;;;;;;;;;;4936202;29;20244;-62
2022/03/26 08:16:56;;;;;;;30.35;15.60;;;;;;;;;;4936168;29;20662;-62
2022/03/26 08:19:22;;;;;;;29.95;14.93;;;;;;;;;;4936198;29;20192;-60
2022/03/26 08:21:47;;;;;;;27.65;14.38;;;;;;;;;;4936237;29;20169;-63
2022/03/26 08:24:14;;;;;;;29.48;14.35;;;;;;;;;;4935821;29;20169;-62
2022/03/26 08:26:40;;;;;;;27.75;14.55;;;;;;;;;;4936145;29;20196;-62
2022/03/26 08:29:06;;;;;;;29.10;14.35;;;;;;;;;;4935790;29;20598;-62
2022/03/26 08:31:32;;;;;;;28.42;13.82;;;;;;;;;;4936052;29;20173;-62
2022/03/26 08:34:00;;;;;;;28.70;13.93;;;;;;;;;;4935890;29;20243;-62
2022/03/26 08:36:26;;;;;;;28.58;13.93;;;;;;;;;;4936043;29;20221;-62
2022/03/26 08:38:52;;;;;;;28.38;14.05;;;;;;;;;;4935802;29;20191;-62
2022/03/26 08:41:22;;;;;;;26.65;13.30;;;;;;;;;;4935930;29;20216;-63
2022/03/26 08:43:50;;;;;;;26.08;13.40;;;;;;;;;;4935674;29;20618;-62
2022/03/26 08:46:16;;;;;;;24.58;12.48;;;;;;;;;;4936455;29;20554;-63
2022/03/26 08:48:42;;;;;;;25.45;12.60;;;;;;;;;;4939290;29;20180;-62
2022/03/26 08:51:07;;;;;;;25.40;13.05;;;;;;;;;;4939241;29;20490;-61
2022/03/26 08:53:33;;;;;;;23.65;12.40;;;;;;;;;;4939053;29;20605;-62
2022/03/26 08:56:00;;;;;;;27.50;13.15;;;;;;;;;;4939153;29;20165;-63
2022/03/26 08:58:26;;;;;;;24.67;13.13;;;;;;;;;;4939525;29;20199;-62
2022/03/26 09:00:52;;;;;;;24.83;13.10;;;;;;;;;;4939332;29;20657;-62
2022/03/26 09:03:20;;;;;;;26.90;13.25;;;;;;;;;;4938832;29;20688;-62
2022/03/26 09:05:47;;;;;;;23.75;12.90;;;;;;;;;;4939218;29;20512;-62
2022/03/26 09:08:13;;;;;;;24.30;12.65;;;;;;;;;;4939075;29;20187;-62
2022/03/26 09:10:39;;;;;;;24.20;11.93;;;;;;;;;;4938951;29;20186;-62
2022/03/26 09:13:05;;;;;;;21.40;12.15;;;;;;;;;;4939034;29;20180;-61
2022/03/26 09:15:31;;;;;;;23.48;12.18;;;;;;;;;;4938762;29;20841;-62
2022/03/26 09:17:57;;;;;;;23.30;12.27;;;;;;;;;;4938747;29;20189;-61
2022/03/26 09:20:23;;;;;;;22.17;10.88;;;;;;;;;;4938675;29;20168;-62
2022/03/26 09:22:49;;;;;;;20.90;11.68;;;;;;;;;;4938685;29;20240;-61
2022/03/26 09:25:17;;;;;;;21.10;11.55;;;;;;;;;;4938668;29;20177;-61
2022/03/26 09:27:43;;;;;;;20.75;11.40;;;;;;;;;;4942893;29;20220;-61
2022/03/26 09:30:09;;;;;;;22.52;10.80;;;;;;;;;;4947395;29;20216;-62
2022/03/26 09:32:35;;;;;;;18.77;10.30;;;;;;;;;;4938784;29;20169;-61
2022/03/26 09:35:01;;;;;;;22.65;11.43;;;;;;;;;;4938299;29;20535;-62
2022/03/26 09:37:27;;;;;;;19.70;10.60;;;;;;;;;;4938309;29;20197;-62
2022/03/26 09:39:54;;;;;;;19.77;10.43;;;;;;;;;;4938405;29;20179;-62
2022/03/26 09:42:23;;;;;;;25.83;11.45;;;;;;;;;;4938650;29;20530;-62
2022/03/26 09:44:50;;;;;;;18.73;11.00;;;;;;;;;;4938230;29;20512;-62
2022/03/26 09:47:16;;;;;;;20.67;10.80;;;;;;;;;;4938118;29;20549;-62
2022/03/26 09:49:42;;;;;;;19.60;10.63;;;;;;;;;;4937845;29;20209;-62
2022/03/26 09:52:08;;;;;;;20.13;10.05;;;;;;;;;;4938272;29;20180;-62
2022/03/26 09:54:36;;;;;;;17.77;10.32;;;;;;;;;;4937908;29;20240;-62
2022/03/26 09:57:02;;;;;;;17.60;9.27;;;;;;;;;;4938102;29;20205;-62
2022/03/26 09:59:28;;;;;;;17.40;9.48;;;;;;;;;;4937513;29;20184;-62
2022/03/26 10:01:54;;;;;;;18.75;9.27;;;;;;;;;;4938525;29;20169;-62
2022/03/26 10:04:22;;;;;;;14.25;8.65;;;;;;;;;;4938080;29;20184;-62
2022/03/26 10:06:49;;;;;;;15.13;9.30;;;;;;;;;;4938314;29;20177;-62
2022/03/26 10:09:25;;;;;;;15.30;9.38;;;;;;;;;;4937822;29;20605;-62
2022/03/26 10:11:58;;;;;;;15.88;8.30;;;;;;;;;;4937890;29;20231;-62
2022/03/26 10:14:24;;;;;;;14.02;8.77;;;;;;;;;;4937750;29;20157;-62
2022/03/26 10:16:51;;;;;;;15.88;8.45;;;;;;;;;;4938311;29;20196;-61
2022/03/26 10:19:22;;;;;;;14.45;8.20;;;;;;;;;;4937539;29;20188;-62
2022/03/26 10:21:49;;;;;;;13.40;7.97;;;;;;;;;;4938105;29;20235;-61
2022/03/26 10:24:15;;;;;;;11.90;7.82;;;;;;;;;;4938371;29;20169;-62
2022/03/26 10:26:42;;;;;;;11.30;7.60;;;;;;;;;;4937907;29;20196;-62
2022/03/26 10:29:10;;;;;;;11.95;7.05;;;;;;;;;;4937956;29;20189;-62
2022/03/26 10:34:20;;;;;;;10.27;7.20;;;;;;;;;;4937660;29;20608;-62
2022/03/26 10:36:46;;;;;;;11.85;7.38;;;;;;;;;;4937944;29;20211;-62
2022/03/26 10:39:20;;;;;;;12.82;7.35;;;;;;;;;;4936785;29;20267;-62
2022/03/26 10:41:47;;;;;;;13.32;7.07;;;;;;;;;;4937445;29;20165;-62
2022/03/26 10:44:17;;;;;;;10.88;6.85;;;;;;;;;;4937493;29;20169;-61
2022/03/26 10:47:03;;;;;;;13.35;7.22;;;;;;;;;;4937400;29;20232;-61
2022/03/26 10:49:30;;;;;;;10.93;7.03;;;;;;;;;;4937106;29;20176;-62
2022/03/26 10:51:57;;;;;;;8.48;6.07;;;;;;;;;;4937462;29;20204;-62
2022/03/26 10:54:30;;;;;;;13.77;6.57;;;;;;;;;;4936995;29;20567;-61
2022/03/26 10:56:57;;;;;;;11.63;5.90;;;;;;;;;;4937185;29;20283;-62
2022/03/26 10:59:24;;;;;;;10.05;6.45;;;;;;;;;;4937157;29;20180;-62
2022/03/26 11:01:50;;;;;;;13.73;7.30;;;;;;;;;;4937250;29;20485;-62
2022/03/26 11:04:18;;;;;;;12.23;6.57;;;;;;;;;;4937015;29;20260;-62
2022/03/26 11:06:44;;;;;;;9.98;6.20;;;;;;;;;;4937052;29;20259;-62
2022/03/26 11:09:10;;;;;;;12.68;7.00;;;;;;;;;;4937442;29;20180;-61
2022/03/26 11:11:37;;;;;;;9.07;6.15;;;;;;;;;;4940020;29;20265;-61
2022/03/26 11:14:07;;;;;;;8.93;5.75;;;;;;;;;;4936966;29;20660;-62
2022/03/26 11:16:51;;;;;;;11.80;6.13;;;;;;;;;;4936571;29;20205;-62
2022/03/26 11:19:30;;;;;;;9.38;5.88;;;;;;;;;;4936479;29;20256;-62
2022/03/26 11:22:04;;;;;;;9.73;5.78;;;;;;;;;;4936748;29;20204;-62
2022/03/26 11:24:43;;;;;;;8.88;5.43;;;;;;;;;;4936784;29;20182;-61
2022/03/26 11:27:09;;;;;;;7.53;5.53;;;;;;;;;;4936715;29;20192;-61
2022/03/26 11:29:44;;;;;;;8.18;5.13;;;;;;;;;;4936617;29;20563;-61
2022/03/26 11:32:25;;;;;;;8.23;5.65;;;;;;;;;;4936523;29;20171;-62
2022/03/26 11:34:58;;;;;;;6.78;5.10;;;;;;;;;;4936708;29;20184;-61
2022/03/26 11:37:24;;;;;;;5.72;4.65;;;;;;;;;;4936500;29;20192;-61
2022/03/26 11:39:56;;;;;;;7.68;5.20;;;;;;;;;;4936320;29;20205;-61
2022/03/26 11:42:34;;;;;;;8.40;5.53;;;;;;;;;;4936659;29;20192;-61
2022/03/26 11:50:46;;;;;;;7.47;4.65;;;;;;;;;;4936359;29;20171;-62
2022/03/26 11:53:14;;;;;;;6.68;4.90;;;;;;;;;;4936472;29;20489;-61
2022/03/26 11:55:43;;;;;;;8.73;4.95;;;;;;;;;;4936250;29;20181;-62
2022/03/26 11:58:15;;;;;;;7.22;4.55;;;;;;;;;;4936010;29;20221;-62
2022/03/26 12:00:54;;;;;;;5.50;4.40;;;;;;;;;;4936028;29;20169;-62
2022/03/26 12:03:24;;;;;;;6.70;4.63;;;;;;;;;;4936312;29;20180;-62
2022/03/26 12:08:40;;;;;;;6.72;3.97;;;;;;;;;;4936346;29;20172;-62
2022/03/26 12:11:06;;;;;;;6.45;4.57;;;;;;;;;;4936031;29;20177;-62
2022/03/26 12:13:33;;;;;;;5.95;4.43;;;;;;;;;;4936266;29;20169;-62
2022/03/26 12:16:00;;;;;;;6.47;4.00;;;;;;;;;;4936501;29;20172;-62
2022/03/26 12:18:39;;;;;;;7.88;4.13;;;;;;;;;;4935893;29;20200;-62
2022/03/26 12:21:21;;;;;;;6.82;3.78;;;;;;;;;;4936098;29;20201;-62
2022/03/26 12:23:47;;;;;;;5.50;3.88;;;;;;;;;;4939650;29;20175;-62
2022/03/26 12:26:13;;;;;;;6.47;3.55;;;;;;;;;;4939415;29;20177;-62
2022/03/26 12:28:41;;;;;;;5.47;3.70;;;;;;;;;;4939534;29;20213;-62
2022/03/26 12:31:08;;;;;;;6.13;3.75;;;;;;;;;;4939893;29;20194;-62
2022/03/26 12:33:44;;;;;;;5.00;3.63;;;;;;;;;;4939641;29;20256;-62
2022/03/26 12:36:11;;;;;;;6.50;4.13;;;;;;;;;;4939327;29;20605;-62
2022/03/26 12:38:38;;;;;;;4.60;3.60;;;;;;;;;;4939642;29;20261;-62
2022/03/26 12:41:05;;;;;;;4.53;3.15;;;;;;;;;;4939540;29;20222;-62
2022/03/26 12:43:31;;;;;;;6.32;3.60;;;;;;;;;;4939418;29;20169;-62
2022/03/26 12:45:58;;;;;;;6.68;4.00;;;;;;;;;;4939576;29;20251;-61
2022/03/26 12:48:26;;;;;;;7.10;3.22;;;;;;;;;;4939227;29;20176;-61
2022/03/26 12:50:52;;;;;;;3.70;3.00;;;;;;;;;;4939223;29;20183;-61
2022/03/26 12:53:18;;;;;;;6.43;3.30;;;;;;;;;;4939503;29;20177;-61
2022/03/26 12:55:56;;;;;;;4.05;3.58;;;;;;;;;;4939607;29;20192;-62
2022/03/26 13:01:09;;;;;;;4.53;3.65;;;;;;;;;;4939176;29;20172;-61
2022/03/26 13:03:35;;;;;;;4.38;3.50;;;;;;;;;;4938990;29;20469;-61
2022/03/26 13:06:08;;;;;;;5.88;3.50;;;;;;;;;;4939372;29;20188;-61
2022/03/26 13:08:34;;;;;;;5.05;3.47;;;;;;;;;;4939098;29;20236;-62
2022/03/26 13:11:07;;;;;;;6.05;3.60;;;;;;;;;;4938734;29;20207;-60
2022/03/26 13:13:41;;;;;;;5.00;3.63;;;;;;;;;;4939171;29;20254;-61
2022/03/26 13:16:13;;;;;;;4.18;3.50;;;;;;;;;;4938731;29;20165;-61
2022/03/26 13:18:46;;;;;;;6.90;3.83;;;;;;;;;;4938940;29;20264;-62
2022/03/26 13:21:13;;;;;;;6.75;3.70;;;;;;;;;;4938900;29;20183;-62
2022/03/26 13:23:41;;;;;;;4.28;3.40;;;;;;;;;;4938644;29;20505;-61
2022/03/26 13:26:07;;;;;;;5.07;3.70;;;;;;;;;;4938493;29;20598;-62
2022/03/26 13:28:36;;;;;;;4.60;3.38;;;;;;;;;;4938744;29;20223;-62
2022/03/26 13:31:19;;;;;;;5.38;4.10;;;;;;;;;;4938525;29;20173;-62
2022/03/26 13:33:45;;;;;;;6.55;4.07;;;;;;;;;;4937597;29;20491;-62
2022/03/26 13:36:11;;;;;;;4.15;3.63;;;;;;;;;;4938187;29;20169;-62
2022/03/26 13:38:41;;;;;;;4.07;3.63;;;;;;;;;;4938214;29;20177;-62
2022/03/26 13:41:14;;;;;;;5.47;3.63;;;;;;;;;;4938136;29;20164;-62
2022/03/26 13:43:40;;;;;;;6.03;3.85;;;;;;;;;;4938088;29;20251;-61
2022/03/26 13:46:06;;;;;;;5.88;3.45;;;;;;;;;;4937975;29;20179;-62
2022/03/26 13:48:45;;;;;;;4.65;3.90;;;;;;;;;;4938396;29;20252;-63
2022/03/26 13:51:11;;;;;;;5.38;3.63;;;;;;;;;;4938241;29;20203;-62
2022/03/26 13:53:40;;;;;;;4.30;3.47;;;;;;;;;;4938107;29;20204;-61
2022/03/26 13:56:08;;;;;;;4.25;3.85;;;;;;;;;;4937891;29;20177;-62
2022/03/26 13:58:34;;;;;;;6.40;3.83;;;;;;;;;;4938601;29;20283;-62
2022/03/26 14:01:04;;;;;;;3.80;3.45;;;;;;;;;;4938064;29;20656;-62
2022/03/26 14:03:35;;;;;;;4.47;3.05;;;;;;;;;;4938385;29;20705;-61
2022/03/26 14:06:01;;;;;;;3.88;3.45;;;;;;;;;;4937876;29;20149;-61
2022/03/26 14:08:26;;;;;;;4.60;3.58;;;;;;;;;;4937947;29;20478;-62
2022/03/26 14:10:54;;;;;;;4.25;3.60;;;;;;;;;;4938011;29;20169;-60
2022/03/26 14:13:20;;;;;;;5.18;3.55;;;;;;;;;;4938518;29;20177;-61
2022/03/26 14:15:49;;;;;;;4.57;3.65;;;;;;;;;;4937862;29;20601;-61
2022/03/26 14:18:15;;;;;;;5.05;3.85;;;;;;;;;;4937921;29;20209;-63
2022/03/26 14:20:41;;;;;;;7.30;3.85;;;;;;;;;;4938292;29;20207;-62
2022/03/26 14:23:08;;;;;;;4.07;3.47;;;;;;;;;;4937618;29;20205;-61
2022/03/26 14:25:36;;;;;;;5.40;3.90;;;;;;;;;;4937912;29;20173;-62
2022/03/26 14:28:03;;;;;;;6.10;3.90;;;;;;;;;;4938189;29;20181;-62
2022/03/26 14:30:29;;;;;;;4.53;3.70;;;;;;;;;;4937670;29;20168;-62
2022/03/26 14:32:57;;;;;;;5.50;3.78;;;;;;;;;;4937478;29;20206;-62
2022/03/26 14:35:23;;;;;;;3.97;3.53;;;;;;;;;;4937196;29;20672;-62
2022/03/26 14:37:49;;;;;;;5.18;4.00;;;;;;;;;;4937537;29;20228;-62